Willow Island, Nebraska
Current Conditions -  °F | °C
As of 11:35 PM on Friday 19 Dec 2014 (Local Time) from KLXN Reporting Station
Clear Clear  
Wind Chill: 24°   Ceiling: Unl
Heat Index: 24°   Visibility: 7mi
Dew Point: 22°   Wind: 3mph
Humidity: 94%   Direction: 300°WNW
Pressure: 30.03"   Gusts: NA
Location:  40.88°N, 100.1°W
Report Text: KLXN 200535Z AUTO 30003KT 7SM CLR M05/M05 A3003 RMK AO2 T10471055
Loading
Personal Weather Stations






























Interactive Weather Map New forecast layout! Learn more

10-Day Weather Forecast

Advertisements
Track Severe Weather on mobile